createdAt,value
2019-04-04T00:01:47.770Z,9.13
2019-04-04T00:04:16.454Z,10.23
2019-04-04T00:06:45.984Z,11.03
2019-04-04T00:09:15.728Z,9.17
2019-04-04T00:11:45.353Z,11.83
2019-04-04T00:14:14.992Z,9.80
2019-04-04T00:16:44.781Z,10.63
2019-04-04T00:19:14.539Z,13.17
2019-04-04T00:21:44.231Z,12.23
2019-04-04T00:24:13.951Z,11.77
2019-04-04T00:26:43.523Z,13.50
2019-04-04T00:29:13.092Z,13.50
2019-04-04T00:31:42.891Z,15.10
2019-04-04T00:34:13.691Z,13.40
2019-04-04T00:36:43.768Z,14.27
2019-04-04T00:39:13.321Z,14.77
2019-04-04T00:41:44.830Z,15.77
2019-04-04T00:44:14.690Z,13.77
2019-04-04T00:46:44.243Z,15.20
2019-04-04T00:49:13.848Z,16.87
2019-04-04T00:51:43.626Z,17.43
2019-04-04T00:54:14.006Z,19.77
2019-04-04T00:56:44.192Z,19.03
2019-04-04T00:59:13.781Z,16.03
2019-04-04T01:01:43.455Z,20.90
2019-04-04T01:04:13.275Z,17.93
2019-04-04T01:06:42.861Z,17.23
2019-04-04T01:09:13.709Z,17.80
2019-04-04T01:11:43.842Z,19.23
2019-04-04T01:14:13.403Z,20.27
2019-04-04T01:16:42.903Z,22.03
2019-04-04T01:19:12.596Z,23.17
2019-04-04T01:21:42.236Z,21.33
2019-04-04T01:24:11.882Z,23.63
2019-04-04T01:26:41.537Z,27.20
2019-04-04T01:29:11.260Z,24.10
2019-04-04T01:31:40.907Z,27.37
2019-04-04T01:34:10.501Z,28.43
2019-04-04T01:36:40.023Z,27.80
2019-04-04T01:39:10.066Z,25.57
2019-04-04T01:41:39.781Z,22.47
2019-04-04T01:44:11.356Z,25.03
2019-04-04T01:46:40.797Z,22.33
2019-04-04T01:49:10.383Z,22.87
2019-04-04T01:51:40.118Z,23.93
2019-04-04T01:54:09.774Z,22.10
2019-04-04T01:56:39.461Z,21.20
2019-04-04T01:59:10.232Z,24.63
2019-04-04T02:01:40.435Z,21.87
2019-04-04T02:04:10.197Z,19.63
2019-04-04T02:06:39.928Z,21.70
2019-04-04T02:09:09.755Z,19.90
2019-04-04T02:11:39.377Z,21.63
2019-04-04T02:14:09.895Z,22.67
2019-04-04T02:16:40.485Z,24.50
2019-04-04T02:19:10.357Z,26.70
2019-04-04T02:21:40.069Z,27.03
2019-04-04T02:24:09.737Z,25.83
2019-04-04T02:26:39.320Z,24.23
2019-04-04T02:29:11.068Z,24.87
2019-04-04T02:31:44.894Z,21.10
2019-04-04T02:34:14.982Z,21.03
2019-04-04T02:36:48.725Z,21.30
2019-04-04T02:39:19.133Z,19.07
2019-04-04T02:41:49.329Z,18.40
2019-04-04T02:44:19.472Z,19.43
2019-04-04T02:46:49.054Z,17.30
2019-04-04T02:49:18.676Z,20.73
2019-04-04T02:51:48.360Z,21.03
2019-04-04T02:54:18.177Z,18.73
2019-04-04T02:56:47.734Z,18.23
2019-04-04T02:59:21.450Z,19.80
2019-04-04T03:01:49.038Z,19.47
2019-04-04T03:04:18.774Z,21.87
2019-04-04T03:06:48.412Z,21.80
2019-04-04T03:09:18.267Z,21.57
2019-04-04T03:11:47.836Z,21.00
2019-04-04T03:14:17.616Z,24.57
2019-04-04T03:16:47.161Z,21.40
2019-04-04T03:19:16.907Z,21.87
2019-04-04T03:21:46.524Z,22.10
2019-04-04T03:24:16.112Z,23.37
2019-04-04T03:26:45.665Z,22.80
2019-04-04T03:29:15.333Z,27.17
2019-04-04T03:31:44.961Z,26.63
2019-04-04T03:34:14.688Z,27.37
2019-04-04T03:36:44.577Z,29.63
2019-04-04T03:39:14.169Z,25.87
2019-04-04T03:41:45.378Z,29.40
2019-04-04T03:44:15.055Z,25.43
2019-04-04T03:46:44.687Z,28.47
2019-04-04T03:49:14.174Z,27.83
2019-04-04T03:51:43.858Z,29.00
2019-04-04T03:54:15.129Z,28.93
2019-04-04T03:56:44.620Z,24.90
2019-04-04T03:59:14.348Z,27.53
2019-04-04T04:01:46.492Z,30.30
2019-04-04T04:04:15.188Z,30.40
2019-04-04T04:06:44.957Z,31.17
2019-04-04T04:09:14.520Z,31.90
2019-04-04T04:11:44.291Z,32.20
2019-04-04T04:14:13.864Z,30.77
2019-04-04T04:16:43.646Z,31.27
2019-04-04T04:19:13.243Z,34.57
2019-04-04T04:21:43.873Z,32.87
2019-04-04T04:24:13.686Z,35.93
2019-04-04T04:26:43.527Z,35.97
2019-04-04T04:29:13.171Z,31.53
2019-04-04T04:31:42.709Z,33.90
2019-04-04T04:34:12.252Z,38.53
2019-04-04T04:36:41.864Z,31.80
2019-04-04T04:39:11.593Z,36.53
2019-04-04T04:41:41.175Z,36.90
2019-04-04T04:44:11.301Z,39.10
2019-04-04T04:46:41.391Z,39.90
2019-04-04T04:49:11.052Z,39.57
2019-04-04T04:51:43.233Z,37.00
2019-04-04T04:54:12.108Z,39.93
2019-04-04T04:56:41.900Z,32.10
2019-04-04T04:59:13.319Z,33.70
2019-04-04T05:01:43.059Z,37.03
2019-04-04T05:04:12.839Z,28.03
2019-04-04T05:06:42.466Z,28.90
2019-04-04T05:09:13.988Z,31.40
2019-04-04T05:11:43.824Z,29.23
2019-04-04T05:14:13.750Z,31.90
2019-04-04T05:16:44.007Z,30.97
2019-04-04T05:19:17.102Z,30.00
2019-04-04T05:21:47.342Z,34.53
2019-04-04T05:24:18.098Z,32.20
2019-04-04T05:26:48.590Z,28.30
2019-04-04T05:29:18.659Z,28.67
2019-04-04T05:31:50.059Z,25.70
2019-04-04T05:34:19.642Z,27.27
2019-04-04T05:36:49.378Z,30.30
2019-04-04T05:39:19.311Z,30.00
2019-04-04T05:41:48.966Z,32.80
2019-04-04T05:44:18.792Z,28.57
2019-04-04T05:46:51.182Z,27.13
2019-04-04T05:49:20.347Z,28.23
2019-04-04T05:51:50.863Z,28.13
2019-04-04T05:54:20.539Z,29.73
2019-04-04T05:56:50.318Z,34.07
2019-04-04T05:59:19.975Z,28.67
2019-04-04T06:01:49.531Z,31.33
2019-04-04T06:04:35.302Z,29.53
2019-04-04T06:07:10.387Z,32.03
2019-04-04T06:09:42.086Z,30.93
2019-04-04T06:12:11.774Z,31.90
2019-04-04T06:14:41.465Z,30.20
2019-04-04T06:17:11.093Z,28.17
2019-04-04T06:19:40.830Z,25.27
2019-04-04T06:22:10.492Z,25.70
2019-04-04T06:24:40.341Z,31.47
2019-04-04T06:27:09.962Z,30.07
2019-04-04T06:29:39.815Z,31.80
2019-04-04T06:32:09.579Z,28.37
2019-04-04T06:34:39.325Z,27.47
2019-04-04T06:37:08.955Z,25.83
2019-04-04T06:39:38.520Z,24.00
2019-04-04T06:42:11.175Z,27.63
2019-04-04T06:44:39.543Z,29.57
2019-04-04T06:47:09.597Z,28.30
2019-04-04T06:49:39.357Z,26.13
2019-04-04T06:52:09.450Z,27.37
2019-04-04T06:54:39.368Z,26.37
2019-04-04T06:57:08.918Z,26.70
2019-04-04T06:59:38.546Z,25.83
2019-04-04T07:02:09.667Z,28.87
2019-04-04T07:04:39.246Z,25.67
2019-04-04T07:07:08.989Z,24.03
2019-04-04T07:09:38.528Z,24.33
2019-04-04T07:12:20.331Z,23.80
2019-04-04T07:14:45.413Z,21.23
2019-04-04T07:17:11.823Z,24.37
2019-04-04T07:19:41.324Z,22.40
2019-04-04T07:22:11.010Z,23.43
2019-04-04T07:24:40.584Z,24.67
2019-04-04T07:27:10.328Z,24.03
2019-04-04T07:29:40.000Z,26.00
2019-04-04T07:32:10.215Z,25.27
2019-04-04T07:34:40.067Z,25.30
2019-04-04T07:37:09.678Z,23.73
2019-04-04T07:39:39.419Z,20.77
2019-04-04T07:42:09.254Z,23.83
2019-04-04T07:44:38.916Z,22.33
2019-04-04T07:47:08.615Z,24.97
2019-04-04T07:49:40.191Z,26.03
2019-04-04T07:52:09.684Z,24.60
2019-04-04T07:54:39.387Z,22.37
2019-04-04T07:57:09.248Z,21.23
2019-04-04T07:59:39.086Z,19.77
2019-04-04T08:02:08.742Z,19.33
2019-04-04T08:04:38.470Z,21.33
2019-04-04T08:07:08.689Z,24.23
2019-04-04T08:09:38.303Z,22.57
2019-04-04T08:12:07.998Z,22.73
2019-04-04T08:14:37.671Z,24.50
2019-04-04T08:17:07.460Z,22.93
2019-04-04T08:19:37.115Z,22.67
2019-04-04T08:22:06.859Z,24.00
2019-04-04T08:24:36.604Z,23.73
2019-04-04T08:27:06.279Z,22.87
2019-04-04T08:29:35.897Z,23.80
2019-04-04T08:32:05.687Z,23.23
2019-04-04T08:34:36.555Z,24.20
2019-04-04T08:37:06.514Z,22.40
2019-04-04T08:39:36.311Z,23.27
2019-04-04T08:42:06.056Z,18.50
2019-04-04T08:44:35.944Z,20.97
2019-04-04T08:47:05.695Z,24.53
2019-04-04T08:49:35.814Z,25.90
2019-04-04T08:52:16.123Z,21.60
2019-04-04T08:54:37.158Z,23.03
2019-04-04T08:57:07.155Z,24.47
2019-04-04T08:59:36.924Z,23.00
2019-04-04T09:02:06.724Z,24.87
2019-04-04T09:04:36.365Z,23.37
2019-04-04T09:07:05.984Z,22.80
2019-04-04T09:09:35.818Z,26.43
2019-04-04T09:12:05.739Z,28.67
2019-04-04T09:14:35.355Z,22.77
2019-04-04T09:17:05.039Z,26.70
2019-04-04T09:19:34.967Z,25.27
2019-04-04T09:22:04.761Z,26.20
2019-04-04T09:24:34.495Z,28.97
2019-04-04T09:27:04.212Z,27.90
2019-04-04T09:29:33.918Z,27.40
2019-04-04T09:32:03.634Z,27.33
2019-04-04T09:34:33.825Z,27.80
2019-04-04T09:37:03.558Z,27.03
2019-04-04T09:39:33.619Z,25.73
2019-04-04T09:42:03.435Z,27.80
2019-04-04T09:44:33.253Z,26.67
2019-04-04T09:47:05.695Z,25.87
2019-04-04T09:49:34.555Z,25.47
2019-04-04T09:52:04.249Z,26.77
2019-04-04T09:54:34.073Z,25.87
2019-04-04T09:57:03.749Z,25.97
2019-04-04T09:59:33.453Z,27.50
2019-04-04T10:02:03.186Z,24.90
2019-04-04T10:04:33.279Z,27.97
2019-04-04T10:07:02.883Z,27.83
2019-04-04T10:09:32.666Z,26.90
2019-04-04T10:12:02.273Z,28.60
2019-04-04T10:14:31.781Z,30.33
2019-04-04T10:17:01.672Z,29.60
2019-04-04T10:19:31.611Z,29.67
2019-04-04T10:22:01.178Z,31.03
2019-04-04T10:24:30.916Z,27.37
2019-04-04T10:27:00.751Z,30.27
2019-04-04T10:29:30.332Z,27.40
2019-04-04T10:31:59.910Z,26.07
2019-04-04T10:34:29.724Z,26.90
2019-04-04T10:36:59.303Z,24.17
2019-04-04T10:39:32.608Z,27.20
2019-04-04T10:42:00.635Z,24.30
2019-04-04T10:44:30.652Z,28.50
2019-04-04T10:47:00.219Z,26.17
2019-04-04T10:49:29.848Z,23.13
2019-04-04T10:51:59.550Z,30.63
2019-04-04T10:54:29.531Z,29.20
2019-04-04T10:56:59.082Z,30.03
2019-04-04T10:59:28.793Z,33.83
2019-04-04T11:02:00.908Z,27.87
2019-04-04T11:04:30.070Z,33.53
2019-04-04T11:06:59.805Z,28.53
2019-04-04T11:09:41.307Z,30.10
2019-04-04T11:12:00.840Z,30.37
2019-04-04T11:14:30.554Z,32.47
2019-04-04T11:17:00.614Z,31.37
2019-04-04T11:19:31.555Z,30.97
2019-04-04T11:22:01.354Z,29.77
2019-04-04T11:24:31.154Z,32.93
2019-04-04T11:27:00.783Z,35.83
2019-04-04T11:29:30.525Z,30.30
2019-04-04T11:32:00.078Z,34.20
2019-04-04T11:34:29.656Z,34.53
2019-04-04T11:36:59.313Z,31.87
2019-04-04T11:39:29.964Z,35.07
2019-04-04T11:41:59.554Z,35.87
2019-04-04T11:44:30.772Z,34.53
2019-04-04T11:47:00.806Z,29.90
2019-04-04T11:49:30.378Z,35.60
2019-04-04T11:52:00.074Z,33.30
2019-04-04T11:54:29.722Z,34.60
2019-04-04T11:56:59.372Z,34.90
2019-04-04T11:59:29.199Z,38.33
2019-04-04T12:01:59.429Z,37.63
2019-04-04T12:04:29.105Z,33.53
2019-04-04T12:06:58.762Z,35.30
2019-04-04T12:09:28.447Z,32.47
2019-04-04T12:11:58.278Z,32.93
2019-04-04T12:14:28.075Z,32.97
2019-04-04T12:16:57.743Z,35.30
2019-04-04T12:19:27.402Z,32.60
2019-04-04T12:21:57.076Z,30.47
2019-04-04T12:24:26.743Z,30.23
2019-04-04T12:26:56.502Z,31.87
2019-04-04T12:29:26.174Z,30.03
2019-04-04T12:31:55.700Z,27.70
2019-04-04T12:34:25.557Z,31.17
2019-04-04T12:36:55.238Z,27.07
2019-04-04T12:39:25.103Z,26.93
2019-04-04T12:41:54.944Z,26.97
2019-04-04T12:44:24.671Z,25.70
2019-04-04T12:46:54.399Z,30.07
2019-04-04T12:49:24.099Z,26.23
2019-04-04T12:51:53.928Z,25.20
2019-04-04T12:54:23.671Z,27.97
2019-04-04T12:56:53.417Z,24.23
2019-04-04T12:59:23.092Z,24.37
2019-04-04T13:01:52.845Z,22.83
2019-04-04T13:04:31.052Z,21.03
2019-04-04T13:06:54.136Z,20.30
2019-04-04T13:09:23.946Z,20.43
2019-04-04T13:11:53.723Z,22.17
2019-04-04T13:14:23.481Z,21.20
2019-04-04T13:16:53.131Z,19.27
2019-04-04T13:19:22.787Z,20.93
2019-04-04T13:21:52.453Z,20.13
2019-04-04T13:24:22.177Z,18.90
2019-04-04T13:26:52.212Z,18.73
2019-04-04T13:29:22.090Z,19.83
2019-04-04T13:31:51.717Z,19.10
2019-04-04T13:34:21.473Z,21.07
2019-04-04T13:36:51.653Z,21.80
2019-04-04T13:39:21.576Z,21.23
2019-04-04T13:41:51.606Z,21.57
2019-04-04T13:44:23.172Z,20.20
2019-04-04T13:46:52.819Z,22.90
2019-04-04T13:49:22.581Z,21.43
2019-04-04T13:51:53.084Z,23.60
2019-04-04T13:54:23.521Z,25.07
2019-04-04T13:56:53.249Z,23.10
2019-04-04T13:59:23.003Z,24.40
2019-04-04T14:01:53.024Z,26.77
2019-04-04T14:04:24.644Z,23.73
2019-04-04T14:06:55.468Z,25.87
2019-04-04T14:09:25.196Z,26.47
2019-04-04T14:11:54.965Z,26.97
2019-04-04T14:14:24.909Z,27.67
2019-04-04T14:16:55.021Z,29.37
2019-04-04T14:19:25.062Z,27.93
2019-04-04T14:21:55.262Z,26.40
2019-04-04T14:24:24.905Z,29.00
2019-04-04T14:26:54.631Z,27.97
2019-04-04T14:29:27.824Z,31.50
2019-04-04T14:31:56.024Z,29.83
2019-04-04T14:34:25.653Z,34.50
2019-04-04T14:36:55.977Z,31.10
2019-04-04T14:39:25.898Z,32.50
2019-04-04T14:41:55.797Z,36.00
2019-04-04T14:44:25.449Z,34.03
2019-04-04T14:46:55.272Z,34.77
2019-04-04T14:49:24.845Z,29.33
2019-04-04T14:51:55.520Z,30.93
2019-04-04T14:54:25.191Z,29.83
2019-04-04T14:56:55.302Z,32.17
2019-04-04T14:59:24.952Z,32.40
2019-04-04T15:01:54.847Z,30.00
2019-04-04T15:04:24.875Z,32.83
2019-04-04T15:06:54.514Z,31.07
2019-04-04T15:09:24.163Z,34.10
2019-04-04T15:11:53.874Z,30.10
2019-04-04T15:14:23.738Z,30.83
2019-04-04T15:16:53.705Z,29.17
2019-04-04T15:19:23.371Z,31.03
2019-04-04T15:21:53.111Z,30.30
2019-04-04T15:24:22.685Z,30.67
2019-04-04T15:26:52.551Z,29.97
2019-04-04T15:29:22.207Z,30.90
2019-04-04T15:31:51.876Z,32.57
2019-04-04T15:34:21.529Z,28.80
2019-04-04T15:36:51.317Z,30.00
2019-04-04T15:39:20.982Z,35.10
2019-04-04T15:41:50.846Z,32.43
2019-04-04T15:44:20.513Z,33.33
2019-04-04T15:46:50.169Z,31.87
2019-04-04T15:49:19.922Z,30.67
2019-04-04T15:51:49.585Z,33.87
2019-04-04T15:54:19.244Z,32.17
2019-04-04T15:56:48.935Z,32.87
2019-04-04T15:59:18.637Z,33.27
2019-04-04T16:01:48.317Z,34.10
2019-04-04T16:04:18.174Z,34.17
2019-04-04T16:06:47.867Z,36.53
2019-04-04T16:09:17.556Z,33.50
2019-04-04T16:11:49.769Z,36.97
2019-04-04T16:14:18.589Z,38.07
2019-04-04T16:16:48.552Z,37.17
2019-04-04T16:19:18.308Z,37.33
2019-04-04T16:21:48.017Z,36.37
2019-04-04T16:24:17.734Z,39.67
2019-04-04T16:26:47.462Z,39.27
2019-04-04T16:29:17.300Z,39.80
2019-04-04T16:31:47.038Z,41.50
2019-04-04T16:34:16.628Z,38.33
2019-04-04T16:36:46.384Z,39.43
2019-04-04T16:39:16.006Z,39.43
2019-04-04T16:41:46.349Z,42.90
2019-04-04T16:44:16.028Z,44.47
2019-04-04T16:46:45.636Z,40.73
2019-04-04T16:49:15.425Z,38.10
2019-04-04T16:51:45.037Z,35.70
2019-04-04T16:54:14.860Z,42.47
2019-04-04T16:56:44.501Z,41.17
2019-04-04T16:59:14.245Z,43.43
2019-04-04T17:01:43.918Z,40.47
2019-04-04T17:04:13.769Z,44.00
2019-04-04T17:06:43.438Z,38.37
2019-04-04T17:09:13.102Z,44.43
2019-04-04T17:11:42.853Z,45.13
2019-04-04T17:14:12.519Z,42.70
2019-04-04T17:16:42.126Z,42.00
2019-04-04T17:19:11.837Z,41.03
2019-04-04T17:21:41.581Z,38.90
2019-04-04T17:24:11.260Z,39.07
2019-04-04T17:26:41.022Z,37.97
2019-04-04T17:29:10.680Z,31.87
2019-04-04T17:31:40.375Z,32.53
2019-04-04T17:34:10.233Z,30.63
2019-04-04T17:36:39.950Z,30.77
2019-04-04T17:39:10.028Z,29.27
2019-04-04T17:41:39.750Z,31.27
2019-04-04T17:44:09.451Z,32.20
2019-04-04T17:46:39.220Z,28.87
2019-04-04T17:49:09.127Z,29.90
2019-04-04T17:51:38.958Z,29.07
2019-04-04T17:54:08.823Z,30.70
2019-04-04T17:56:38.830Z,29.67
2019-04-04T17:59:09.131Z,30.43
2019-04-04T18:01:39.355Z,30.47
2019-04-04T18:04:09.900Z,30.87
2019-04-04T18:06:40.781Z,31.23
2019-04-04T18:09:11.269Z,27.80
2019-04-04T18:12:00.512Z,29.80
2019-04-04T18:14:30.254Z,31.13
2019-04-04T18:17:00.513Z,28.70
2019-04-04T18:19:30.205Z,30.20
2019-04-04T18:21:59.987Z,32.63
2019-04-04T18:24:29.683Z,33.77
2019-04-04T18:27:00.819Z,34.93
2019-04-04T18:29:30.662Z,34.93
2019-04-04T18:32:00.509Z,31.00
2019-04-04T18:34:30.492Z,37.37
2019-04-04T18:37:00.675Z,33.57
2019-04-04T18:39:30.455Z,34.80
2019-04-04T18:42:00.886Z,34.63
2019-04-04T18:44:33.695Z,32.37
2019-04-04T18:47:03.849Z,34.90
2019-04-04T18:49:34.216Z,35.07
2019-04-04T18:52:04.363Z,34.10
2019-04-04T18:54:34.543Z,34.13
2019-04-04T18:57:04.703Z,36.07
2019-04-04T18:59:34.452Z,38.33
2019-04-04T19:02:04.169Z,39.67
2019-04-04T19:04:34.242Z,34.30
2019-04-04T19:07:03.964Z,36.77
2019-04-04T19:09:34.403Z,38.83
2019-04-04T19:12:05.965Z,37.63
2019-04-04T19:14:36.503Z,39.03
2019-04-04T19:17:06.170Z,34.30
2019-04-04T19:19:36.114Z,37.07
2019-04-04T19:22:06.129Z,38.50
2019-04-04T19:24:35.851Z,38.27
2019-04-04T19:27:06.515Z,40.53
2019-04-04T19:29:37.899Z,42.70
2019-04-04T19:32:07.550Z,44.50
2019-04-04T19:34:37.388Z,42.23
2019-04-04T19:37:07.284Z,43.83
2019-04-04T19:39:37.430Z,43.37
2019-04-04T19:42:08.675Z,46.97
2019-04-04T19:44:38.567Z,44.30
2019-04-04T19:47:08.749Z,45.93
2019-04-04T19:49:39.319Z,45.20
2019-04-04T19:52:09.141Z,49.90
2019-04-04T19:54:39.107Z,45.27
2019-04-04T19:57:08.829Z,45.40
2019-04-04T19:59:38.594Z,47.03
2019-04-04T20:02:11.194Z,42.87
2019-04-04T20:04:41.015Z,42.13
2019-04-04T20:07:10.922Z,47.63
2019-04-04T20:09:45.875Z,47.40
2019-04-04T20:12:16.313Z,43.03
2019-04-04T20:14:46.355Z,47.20
2019-04-04T20:17:16.245Z,50.70
2019-04-04T20:19:45.979Z,46.40
2019-04-04T20:22:15.805Z,49.47
2019-04-04T20:24:47.071Z,50.13
2019-04-04T20:27:17.019Z,47.73
2019-04-04T20:29:46.858Z,44.73
2019-04-04T20:32:16.716Z,49.00
2019-04-04T20:34:46.414Z,42.07
2019-04-04T20:37:16.090Z,42.53
2019-04-04T20:39:46.618Z,46.07
2019-04-04T20:42:16.368Z,45.43
2019-04-04T20:44:45.915Z,43.70
2019-04-04T20:47:15.725Z,44.70
2019-04-04T20:49:45.447Z,44.30
2019-04-04T20:52:16.797Z,48.33
2019-04-04T20:54:46.423Z,46.13
2019-04-04T20:57:16.174Z,42.43
2019-04-04T20:59:45.982Z,40.53
2019-04-04T21:02:17.140Z,44.00
2019-04-04T21:04:47.063Z,42.07
2019-04-04T21:07:17.320Z,40.37
2019-04-04T21:09:46.909Z,42.47
2019-04-04T21:12:21.207Z,44.10
2019-04-04T21:14:52.462Z,40.43
2019-04-04T21:17:22.144Z,44.30
2019-04-04T21:19:51.904Z,39.77
2019-04-04T21:22:27.355Z,46.00
2019-04-04T21:24:53.054Z,47.63
2019-04-04T21:27:22.806Z,52.93
2019-04-04T21:29:52.549Z,41.63
2019-04-04T21:32:23.730Z,43.47
2019-04-04T21:34:55.366Z,46.57
2019-04-04T21:37:25.523Z,47.53
2019-04-04T21:39:55.185Z,45.03
2019-04-04T21:42:25.884Z,43.00
2019-04-04T21:44:55.563Z,44.97
2019-04-04T21:47:25.314Z,43.67
2019-04-04T21:49:55.180Z,45.87
2019-04-04T21:52:24.730Z,42.70
2019-04-04T21:54:54.422Z,42.63
2019-04-04T21:57:24.112Z,39.47
2019-04-04T21:59:53.812Z,43.37
2019-04-04T22:02:23.931Z,43.47
2019-04-04T22:04:53.917Z,38.27
2019-04-04T22:07:23.628Z,43.67
2019-04-04T22:09:53.384Z,41.50
2019-04-04T22:12:23.003Z,43.67
2019-04-04T22:14:52.785Z,34.90
2019-04-04T22:17:22.378Z,36.50
2019-04-04T22:19:52.058Z,39.73
2019-04-04T22:22:21.722Z,35.63
2019-04-04T22:24:52.932Z,39.60
2019-04-04T22:27:22.730Z,38.93
2019-04-04T22:29:54.649Z,41.87
2019-04-04T22:32:25.172Z,40.67
2019-04-04T22:34:54.973Z,40.33
2019-04-04T22:37:24.778Z,37.80
2019-04-04T22:39:54.539Z,38.17
2019-04-04T22:42:24.178Z,39.43
2019-04-04T22:44:53.960Z,36.73
2019-04-04T22:47:23.692Z,35.77
2019-04-04T22:49:53.433Z,36.17
2019-04-04T22:52:23.092Z,38.03
2019-04-04T22:54:52.783Z,36.60
2019-04-04T22:57:22.494Z,36.37
2019-04-04T22:59:52.165Z,31.87
2019-04-04T23:02:21.822Z,33.23
2019-04-04T23:04:51.627Z,31.40
2019-04-04T23:07:21.312Z,31.23
2019-04-04T23:09:51.056Z,33.37
2019-04-04T23:12:20.765Z,31.70
2019-04-04T23:14:50.482Z,33.60
2019-04-04T23:17:20.274Z,31.60
2019-04-04T23:19:50.481Z,29.20
2019-04-04T23:22:20.165Z,27.07
2019-04-04T23:24:49.921Z,28.83
2019-04-04T23:27:19.554Z,27.67
2019-04-04T23:29:49.230Z,24.87
2019-04-04T23:32:19.402Z,26.53
2019-04-04T23:34:49.068Z,21.73
2019-04-04T23:37:18.729Z,23.30
2019-04-04T23:39:48.421Z,20.10
2019-04-04T23:42:18.107Z,23.80
2019-04-04T23:44:59.891Z,24.23
2019-04-04T23:47:19.573Z,24.27
2019-04-04T23:49:49.309Z,25.13
2019-04-04T23:52:18.943Z,24.47
2019-04-04T23:54:48.762Z,24.77
2019-04-04T23:57:19.006Z,25.20
2019-04-04T23:59:48.603Z,25.00
